Friday, May 27, 2016, 2:26 AM EDT

KLNS, Lancaster Airport

Location: Lititz, PA, United States Lat: 40.117
Local Time: 2:26 AM EDT ( 6:26 GMT) Lon: -76.3
Time Zone: US/Eastern Elev: 403 ft

Show me the last for .
Show Decoded

2016-05-27 01:53 METAR KLNS 270553Z AUTO 19005KT 10SM CLR 23/17 A3004 RMK AO2 SLP168 60000
                 T02330172 10267 20228 56002 =
2016-05-27 00:53 METAR KLNS 270453Z AUTO 18004KT 10SM SCT080 23/17 A3004 RMK AO2 SLP168 T02330172
                 403060122 =
2016-05-26 23:53 METAR KLNS 270353Z AUTO 17009KT 10SM SCT060 BKN080 24/17 A3004 RMK AO2 RAE0256
                 SLP166 P0000 T02440172 =
2016-05-26 22:53 METAR KLNS 270253Z AUTO 17008KT 10SM -RA FEW070 SCT080 OVC100 24/18 A3005 RMK
                 AO2 RAB45 SLP171 P0000 60000 T02440178 53009 =
2016-05-26 21:53 METAR KLNS 270153Z 14003KT 10SM FEW070 23/18 A3004 RMK AO2 SLP168 T02280178 =
2016-05-26 20:53 METAR KLNS 270053Z 18007KT 10SM CLR 26/17 A3002 RMK AO2 SLP162 T02610167 =
2016-05-26 19:53 METAR KLNS 262353Z 18006KT 10SM BKN090 27/18 A3002 RMK AO2 SLP163 T02670178
                 10306 20267 55002 =
2016-05-26 18:53 METAR KLNS 262253Z 17009KT 10SM CLR 28/17 A3001 RMK AO2 SLP161 T02780172 =
2016-05-26 17:53 METAR KLNS 262153Z 15005KT 10SM FEW080 BKN095 OVC110 28/17 A3001 RMK AO2 SLP160
                 T02780172 =
2016-05-26 16:53 METAR KLNS 262053Z 15009KT 10SM CLR 29/17 A3002 RMK AO2 SLP165 T02890172 58010 =
2016-05-26 15:53 METAR KLNS 261953Z 16008G16KT 10SM BKN080 BKN090 29/16 A3004 RMK AO2 SLP169
                 T02890156 =
2016-05-26 14:53 METAR KLNS 261853Z 18006KT 10SM FEW075 31/15 A3005 RMK AO2 SLP172 T03060150 =
2016-05-26 13:53 METAR KLNS 261753Z 20009KT 10SM CLR 30/13 A3005 RMK AO2 SLP174 T03000133 10306
                 20178 58012 =
2016-05-26 12:53 METAR KLNS 261653Z 20009G15KT 10SM CLR 30/14 A3007 RMK AO2 SLP181 T03000144 =
2016-05-26 11:53 METAR KLNS 261553Z 21008KT 10SM CLR 29/15 A3009 RMK AO2 SLP185 T02890150 =
2016-05-26 10:53 METAR KLNS 261453Z 13005KT 9SM CLR 27/15 A3009 RMK AO2 SLP186 T02670150 58015 =
2016-05-26 09:53 METAR KLNS 261353Z VRB03KT 8SM CLR 25/14 A3011 RMK AO2 SLP193 T02500139 =
2016-05-26 08:53 METAR KLNS 261253Z 01003KT 6SM HZ CLR 22/15 A3014 RMK AO2 SLP202 T02220150 =
2016-05-26 07:53 METAR KLNS 261153Z 12004KT 5SM HZ CLR 17/14 A3013 RMK AO2 SLP202 T01720139 10172
                 20122 51008 =
2016-05-26 06:53 METAR KLNS 261053Z 12003KT 5SM BR CLR 14/13 A3012 RMK AO2 SLP198 T01440133 =
2016-05-26 05:53 METAR KLNS 260953Z 00000KT 5SM BR CLR 12/12 A3012 RMK AO2 SLP197 T01220117 =
2016-05-26 04:53 METAR KLNS 260853Z AUTO 00000KT 6SM BR CLR 14/12 A3011 RMK AO2 SLP193 T01390117
                 53002 =
2016-05-26 03:53 METAR KLNS 260753Z AUTO 00000KT 7SM CLR 14/12 A3010 RMK AO2 SLP191 T01440122 =
2016-05-26 02:53 METAR KLNS 260653Z AUTO 11003KT 7SM CLR 14/12 A3010 RMK AO2 SLP190 T01390122 =

Support USWX by starting your Amazon purchase here.